Time;durP1;ratioP1;P1;durP2;ratioP2;P2;SDS_P1;SDS_P2;PMS_P1;PMS_P2;Temp;Humidity;BMP_temperature;BMP_pressure;BME280_temperature;BME280_humidity;BME280_pressure;Samples;Min_cycle;Max_cycle;Signal;HPM_P1;HPM_P2
2021/04/09 00:00:47;;;;;;;19.80;16.83;;;6.50;62.00;;;;;;5113119;28;20100;-70
2021/04/09 00:03:12;;;;;;;20.13;17.03;;;6.40;62.10;;;;;;5112269;28;20412;-71
2021/04/09 00:05:38;;;;;;;20.03;17.47;;;6.40;62.20;;;;;;5113573;28;20054;-71
2021/04/09 00:08:04;;;;;;;17.23;15.63;;;6.50;62.40;;;;;;5112799;28;20104;-70
2021/04/09 00:10:30;;;;;;;19.53;17.53;;;6.40;62.40;;;;;;5112636;28;20101;-70
2021/04/09 00:12:56;;;;;;;18.67;16.67;;;6.40;62.50;;;;;;5112645;28;20052;-70
2021/04/09 00:15:22;;;;;;;19.80;17.83;;;6.40;62.60;;;;;;5113145;28;20048;-70
2021/04/09 00:17:49;;;;;;;19.20;16.60;;;6.40;62.70;;;;;;5111859;28;20298;-70
2021/04/09 00:20:17;;;;;;;20.20;16.63;;;6.40;62.70;;;;;;5112731;28;20312;-70
2021/04/09 00:22:44;;;;;;;19.37;16.70;;;6.50;62.80;;;;;;5112135;28;20313;-70
2021/04/09 00:25:12;;;;;;;19.70;16.43;;;6.50;62.90;;;;;;5112876;28;20290;-71
2021/04/09 00:27:38;;;;;;;19.97;16.97;;;6.40;62.90;;;;;;5112871;28;20785;-70
2021/04/09 00:30:05;;;;;;;20.27;16.27;;;6.40;63.20;;;;;;5111777;28;20285;-71
2021/04/09 00:32:31;;;;;;;20.80;16.33;;;6.40;63.20;;;;;;5113172;28;20388;-70
2021/04/09 00:34:57;;;;;;;18.40;16.60;;;6.40;63.40;;;;;;5112383;28;20853;-70
2021/04/09 00:37:22;;;;;;;23.40;17.03;;;6.40;63.50;;;;;;5112153;28;20051;-70
2021/04/09 00:39:48;;;;;;;20.00;16.87;;;6.40;63.70;;;;;;5112418;28;20509;-70
2021/04/09 00:42:19;;;;;;;20.17;16.83;;;6.40;63.70;;;;;;5112381;28;20301;-70
2021/04/09 00:44:46;;;;;;;20.17;16.40;;;6.40;63.90;;;;;;5110773;28;20048;-71
2021/04/09 00:47:12;;;;;;;18.10;16.23;;;6.40;64.00;;;;;;5112208;28;20321;-70
2021/04/09 00:49:38;;;;;;;21.60;16.10;;;6.30;64.30;;;;;;5112690;28;20291;-70
2021/04/09 00:52:05;;;;;;;23.37;16.13;;;6.30;64.30;;;;;;5111289;28;20758;-70
2021/04/09 00:54:31;;;;;;;20.97;16.30;;;6.30;64.40;;;;;;5112508;28;20043;-70
2021/04/09 00:56:57;;;;;;;20.47;17.53;;;6.30;64.70;;;;;;5111676;28;20315;-70
2021/04/09 00:59:23;;;;;;;20.23;15.80;;;6.30;64.80;;;;;;5111691;28;20043;-71
2021/04/09 01:01:49;;;;;;;18.70;16.70;;;6.30;64.90;;;;;;5111969;28;20357;-71
2021/04/09 01:04:15;;;;;;;21.10;15.43;;;6.20;64.90;;;;;;5112255;28;20375;-71
2021/04/09 01:06:40;;;;;;;17.33;14.97;;;6.30;65.10;;;;;;5111258;28;20043;-70
2021/04/09 01:09:06;;;;;;;19.50;15.10;;;6.30;65.30;;;;;;5112071;28;20053;-70
2021/04/09 01:11:32;;;;;;;18.00;15.57;;;6.30;65.20;;;;;;5112326;28;20522;-70
2021/04/09 01:13:58;;;;;;;19.73;16.17;;;6.30;65.40;;;;;;5110809;28;20119;-70
2021/04/09 01:16:42;;;;;;;19.40;16.00;;;6.30;65.40;;;;;;5112068;28;20388;-70
2021/04/09 01:19:31;;;;;;;21.20;14.90;;;6.20;65.80;;;;;;5111307;28;20089;-70
2021/04/09 01:22:02;;;;;;;20.10;15.40;;;6.30;66.10;;;;;;5111525;28;20305;-70
2021/04/09 01:24:43;;;;;;;18.35;15.52;;;6.20;65.60;;;;;;5112047;28;20305;-70
2021/04/09 01:27:29;;;;;;;20.53;15.37;;;6.30;66.00;;;;;;5111042;28;20048;-70
2021/04/09 01:30:19;;;;;;;18.10;15.43;;;6.30;65.90;;;;;;5111622;28;20293;-71
2021/04/09 01:32:44;;;;;;;20.17;14.57;;;6.30;66.10;;;;;;5111593;28;20769;-71
2021/04/09 01:35:14;;;;;;;21.93;17.00;;;6.30;65.90;;;;;;5110830;28;20297;-70
2021/04/09 01:37:47;;;;;;;20.27;15.80;;;6.30;66.00;;;;;;5112205;28;20047;-70
2021/04/09 01:40:17;;;;;;;18.93;15.93;;;6.30;66.30;;;;;;5110758;28;20800;-70
2021/04/09 01:42:47;;;;;;;20.90;16.20;;;6.30;66.20;;;;;;5111741;28;20290;-70
2021/04/09 01:45:14;;;;;;;22.07;15.07;;;6.30;66.20;;;;;;5111560;28;20304;-69
2021/04/09 01:47:42;;;;;;;19.10;15.47;;;6.30;66.40;;;;;;5111145;28;20321;-70
2021/04/09 01:50:16;;;;;;;16.87;15.00;;;6.30;66.30;;;;;;5111419;28;20297;-70
2021/04/09 01:52:44;;;;;;;20.20;16.03;;;6.20;66.60;;;;;;5111614;28;20319;-69
2021/04/09 01:55:12;;;;;;;22.27;15.63;;;6.30;66.50;;;;;;5112561;28;20301;-70
2021/04/09 01:57:40;;;;;;;17.67;15.83;;;6.30;66.50;;;;;;5115733;28;20381;-70
2021/04/09 02:00:12;;;;;;;18.30;16.07;;;6.30;66.50;;;;;;5115434;28;20293;-70
2021/04/09 02:02:38;;;;;;;20.30;15.77;;;6.30;66.60;;;;;;5115207;28;20297;-70
2021/04/09 02:05:05;;;;;;;19.87;15.77;;;6.30;66.50;;;;;;5115047;28;20092;-70
2021/04/09 02:07:31;;;;;;;19.63;15.93;;;6.30;66.60;;;;;;5115610;28;20400;-70
2021/04/09 02:09:58;;;;;;;21.47;16.67;;;6.20;67.60;;;;;;5114167;28;20297;-70
2021/04/09 02:12:25;;;;;;;23.53;15.93;;;6.20;66.80;;;;;;5115481;28;20305;-69
2021/04/09 02:14:56;;;;;;;19.47;15.53;;;6.20;67.00;;;;;;5115425;28;20674;-70
2021/04/09 02:17:22;;;;;;;21.20;16.40;;;6.30;67.20;;;;;;5114564;28;20786;-70
2021/04/09 02:19:48;;;;;;;20.47;15.23;;;6.30;67.00;;;;;;5115029;28;20773;-70
2021/04/09 02:22:16;;;;;;;22.03;16.73;;;6.30;67.00;;;;;;5114421;28;20308;-71
2021/04/09 02:24:42;;;;;;;19.43;15.50;;;6.30;67.10;;;;;;5114987;28;20118;-70
2021/04/09 02:27:07;;;;;;;20.43;18.20;;;6.30;67.20;;;;;;5114968;28;20412;-70
2021/04/09 02:29:34;;;;;;;16.90;15.10;;;6.30;67.20;;;;;;5114626;28;20055;-70
2021/04/09 02:32:00;;;;;;;18.03;15.80;;;6.30;67.30;;;;;;5114674;28;20300;-70
2021/04/09 02:34:27;;;;;;;22.03;16.60;;;6.30;67.50;;;;;;5115191;27;20640;-70
2021/04/09 02:36:54;;;;;;;19.33;15.33;;;6.30;67.30;;;;;;5114113;28;20297;-70
2021/04/09 02:39:25;;;;;;;19.70;15.87;;;6.30;67.20;;;;;;5115053;28;20376;-70
2021/04/09 02:41:58;;;;;;;19.50;15.50;;;6.40;67.20;;;;;;5114942;28;20293;-70
2021/04/09 02:44:24;;;;;;;20.93;16.20;;;6.40;67.20;;;;;;5114685;28;20625;-70
2021/04/09 02:47:06;;;;;;;22.00;15.80;;;6.40;67.40;;;;;;5114550;28;20311;-70
2021/04/09 02:49:40;;;;;;;22.35;16.25;;;6.30;67.50;;;;;;5114910;28;20089;-70
2021/04/09 02:52:13;;;;;;;23.53;16.50;;;6.40;67.30;;;;;;5113794;28;20381;-70
2021/04/09 02:54:41;;;;;;;21.83;16.30;;;6.40;67.40;;;;;;5114969;28;20294;-70
2021/04/09 02:57:09;;;;;;;18.97;16.03;;;6.40;67.30;;;;;;5114664;28;20300;-70
2021/04/09 02:59:36;;;;;;;25.13;17.40;;;6.40;67.30;;;;;;5114040;28;20300;-70
2021/04/09 03:02:01;;;;;;;20.87;15.73;;;6.40;67.30;;;;;;5114051;28;20349;-71
2021/04/09 03:04:30;;;;;;;18.87;15.80;;;6.50;67.30;;;;;;5113601;28;20301;-70
2021/04/09 03:06:56;;;;;;;19.13;16.30;;;6.50;67.30;;;;;;5113019;28;20066;-70
2021/04/09 03:09:23;;;;;;;22.47;16.10;;;6.40;68.30;;;;;;5114335;28;20774;-70
2021/04/09 03:11:48;;;;;;;19.73;16.33;;;6.40;67.50;;;;;;5113468;28;20383;-70
2021/04/09 03:14:15;;;;;;;21.00;16.63;;;6.40;67.50;;;;;;5114223;28;21182;-70
2021/04/09 03:16:52;;;;;;;23.00;16.27;;;6.40;67.50;;;;;;5113940;28;20079;-70
2021/04/09 03:19:18;;;;;;;18.70;15.80;;;6.40;67.60;;;;;;5113226;28;20374;-71
2021/04/09 03:21:43;;;;;;;18.07;16.10;;;6.40;67.60;;;;;;5114082;28;20377;-70
2021/04/09 03:24:09;;;;;;;19.67;15.00;;;6.50;67.70;;;;;;5113985;28;20048;-70
2021/04/09 03:26:35;;;;;;;19.33;16.70;;;6.40;67.60;;;;;;5113427;28;20043;-70
2021/04/09 03:29:01;;;;;;;21.27;16.10;;;6.40;67.60;;;;;;5113388;28;20058;-70
2021/04/09 03:31:27;;;;;;;23.13;17.53;;;6.50;67.70;;;;;;5113963;28;20056;-69
2021/04/09 03:33:54;;;;;;;21.83;16.03;;;6.50;67.70;;;;;;5113152;28;20296;-70
2021/04/09 03:36:20;;;;;;;22.97;16.63;;;6.50;67.80;;;;;;5114102;28;20384;-70
2021/04/09 03:38:46;;;;;;;22.80;16.50;;;6.40;68.00;;;;;;5113650;28;20051;-70
2021/04/09 03:41:11;;;;;;;20.37;17.20;;;6.50;68.10;;;;;;5112882;28;20048;-70
2021/04/09 03:43:37;;;;;;;19.07;16.23;;;6.50;69.10;;;;;;5113776;28;20047;-70
2021/04/09 03:46:03;;;;;;;18.83;15.80;;;6.50;68.30;;;;;;5113279;28;20052;-70
2021/04/09 03:48:28;;;;;;;23.50;17.23;;;6.50;68.30;;;;;;5113176;28;20063;-70
2021/04/09 03:50:54;;;;;;;21.40;17.23;;;6.50;68.30;;;;;;5113550;28;20047;-70
2021/04/09 03:53:20;;;;;;;23.23;18.20;;;6.40;68.50;;;;;;5113488;28;20048;-69
2021/04/09 03:55:45;;;;;;;21.03;16.50;;;6.40;68.50;;;;;;5112627;28;20048;-70
2021/04/09 03:58:11;;;;;;;20.77;16.93;;;6.40;68.60;;;;;;5113171;28;20047;-70
2021/04/09 04:00:37;;;;;;;20.40;17.13;;;6.40;68.80;;;;;;5113489;28;20055;-70
2021/04/09 04:03:03;;;;;;;24.57;17.17;;;6.40;68.80;;;;;;5112356;28;20479;-69
2021/04/09 04:05:28;;;;;;;21.23;16.37;;;6.40;68.90;;;;;;5113381;28;20058;-70
2021/04/09 04:07:54;;;;;;;22.93;18.07;;;6.40;69.00;;;;;;5112321;28;20079;-70
2021/04/09 04:10:20;;;;;;;19.60;17.37;;;6.40;69.10;;;;;;5113125;28;20062;-70
2021/04/09 04:12:45;;;;;;;22.53;17.57;;;6.40;69.20;;;;;;5112904;28;20059;-70
2021/04/09 04:15:13;;;;;;;21.37;18.03;;;6.40;69.40;;;;;;5112104;28;20499;-70
2021/04/09 04:17:38;;;;;;;22.43;17.57;;;6.40;69.50;;;;;;5112660;28;20313;-70
2021/04/09 04:20:05;;;;;;;19.47;16.63;;;6.40;69.60;;;;;;5112458;28;20048;-70
2021/04/09 04:22:31;;;;;;;22.10;18.07;;;6.40;69.90;;;;;;5112359;28;20044;-70
2021/04/09 04:24:56;;;;;;;21.50;16.67;;;6.40;69.90;;;;;;5112470;28;20324;-71
2021/04/09 04:27:23;;;;;;;21.10;16.97;;;6.40;70.10;;;;;;5112932;28;20043;-70
2021/04/09 04:29:49;;;;;;;24.63;18.50;;;6.40;70.20;;;;;;5111791;28;20297;-70
2021/04/09 04:32:15;;;;;;;22.23;17.63;;;6.40;70.50;;;;;;5112477;28;20428;-70
2021/04/09 04:34:40;;;;;;;22.17;17.57;;;6.40;70.40;;;;;;5112599;28;20301;-70
2021/04/09 04:37:06;;;;;;;22.47;18.00;;;6.40;70.70;;;;;;5111853;28;20047;-70
2021/04/09 04:39:32;;;;;;;22.10;16.97;;;6.40;70.70;;;;;;5112853;28;20365;-70
2021/04/09 04:41:57;;;;;;;20.97;18.17;;;6.40;70.80;;;;;;5112103;28;20051;-71
2021/04/09 04:44:23;;;;;;;23.70;17.50;;;6.40;71.00;;;;;;5111918;28;20126;-70
2021/04/09 04:46:49;;;;;;;20.80;17.07;;;6.40;70.90;;;;;;5112422;28;20471;-70
2021/04/09 04:49:15;;;;;;;22.57;17.60;;;6.40;71.10;;;;;;5112461;28;20416;-70
2021/04/09 04:51:40;;;;;;;21.53;18.13;;;6.30;71.20;;;;;;5111706;28;20480;-70
2021/04/09 04:54:06;;;;;;;22.23;18.27;;;6.40;71.50;;;;;;5112310;28;20126;-70
2021/04/09 04:56:31;;;;;;;20.93;17.20;;;6.40;71.50;;;;;;5112310;28;20123;-70
2021/04/09 04:58:57;;;;;;;20.30;17.37;;;6.40;71.50;;;;;;5110958;28;20449;-70
2021/04/09 05:01:23;;;;;;;19.87;17.20;;;6.30;71.70;;;;;;5112374;28;20051;-71
2021/04/09 05:03:48;;;;;;;22.00;17.63;;;6.40;71.90;;;;;;5112111;28;20403;-70
2021/04/09 05:06:15;;;;;;;23.13;18.37;;;6.40;72.00;;;;;;5111186;28;20515;-70
2021/04/09 05:08:40;;;;;;;23.03;17.87;;;6.40;72.00;;;;;;5112045;28;20105;-70
2021/04/09 05:11:07;;;;;;;24.90;18.80;;;6.40;72.10;;;;;;5111252;28;20347;-70
2021/04/09 05:13:32;;;;;;;22.53;18.03;;;6.40;72.30;;;;;;5112090;28;20205;-70
2021/04/09 05:15:58;;;;;;;20.00;17.00;;;6.40;72.40;;;;;;5111505;28;20451;-71
2021/04/09 05:18:24;;;;;;;22.17;18.10;;;6.40;72.50;;;;;;5111614;28;20047;-70
2021/04/09 05:20:49;;;;;;;22.50;17.27;;;6.40;72.60;;;;;;5111543;28;20040;-70
2021/04/09 05:23:15;;;;;;;22.47;17.57;;;6.40;72.90;;;;;;5111800;28;20471;-69
2021/04/09 05:25:41;;;;;;;18.57;16.60;;;6.30;72.70;;;;;;5110839;28;20047;-70
2021/04/09 05:28:06;;;;;;;20.97;17.50;;;6.30;72.80;;;;;;5111551;28;20523;-70
2021/04/09 05:30:32;;;;;;;21.13;16.60;;;6.30;73.00;;;;;;5111261;28;20044;-70
2021/04/09 05:32:58;;;;;;;18.00;16.10;;;6.30;73.10;;;;;;5110720;28;20108;-70
2021/04/09 05:35:25;;;;;;;22.20;16.90;;;6.30;73.40;;;;;;5112016;28;20293;-70
2021/04/09 05:37:51;;;;;;;20.67;16.37;;;6.40;73.50;;;;;;5111579;28;20047;-70
2021/04/09 05:40:17;;;;;;;19.53;15.23;;;6.40;74.40;;;;;;5110785;28;20688;-70
2021/04/09 05:42:43;;;;;;;21.13;14.90;;;6.40;73.70;;;;;;5111377;28;20301;-70
2021/04/09 05:45:09;;;;;;;20.67;16.03;;;6.40;73.80;;;;;;5111599;28;20342;-70
2021/04/09 05:47:35;;;;;;;20.80;15.50;;;6.40;73.80;;;;;;5111034;28;20051;-70
2021/04/09 05:50:01;;;;;;;18.90;16.57;;;6.50;73.90;;;;;;5111249;28;20662;-71
2021/04/09 05:52:26;;;;;;;22.03;16.70;;;6.50;73.70;;;;;;5111546;28;20504;-71
2021/04/09 05:54:52;;;;;;;23.87;15.57;;;6.60;73.70;;;;;;5110542;28;20476;-70
2021/04/09 05:57:18;;;;;;;24.30;16.73;;;6.70;73.80;;;;;;5111338;28;20047;-70
2021/04/09 05:59:44;;;;;;;20.27;15.63;;;6.80;73.40;;;;;;5111346;28;20047;-70
2021/04/09 06:02:10;;;;;;;19.30;15.27;;;6.90;73.60;;;;;;5110689;28;20059;-70
2021/04/09 06:04:35;;;;;;;19.13;15.17;;;7.00;73.20;;;;;;5111680;28;20289;-70
2021/04/09 06:07:01;;;;;;;20.07;15.60;;;7.20;72.90;;;;;;5111119;28;20071;-70
2021/04/09 06:09:27;;;;;;;19.63;16.20;;;7.20;72.60;;;;;;5110867;28;20104;-70
2021/04/09 06:11:52;;;;;;;20.70;14.90;;;7.30;72.50;;;;;;5111216;28;20065;-71
2021/04/09 06:14:19;;;;;;;19.87;15.10;;;7.30;72.50;;;;;;5110733;28;20496;-70
2021/04/09 06:16:44;;;;;;;18.27;15.07;;;7.40;72.70;;;;;;5111086;28;20052;-70
2021/04/09 06:19:10;;;;;;;22.90;16.63;;;7.60;73.40;;;;;;5111006;28;20423;-70
2021/04/09 06:21:36;;;;;;;22.00;15.63;;;7.70;72.30;;;;;;5110736;28;20047;-70
2021/04/09 06:24:03;;;;;;;17.53;15.20;;;7.70;72.00;;;;;;5110887;28;20297;-71
2021/04/09 06:26:29;;;;;;;18.83;15.73;;;7.90;71.80;;;;;;5111485;28;20052;-70
2021/04/09 06:28:55;;;;;;;19.00;15.33;;;8.00;71.60;;;;;;5109940;28;20871;-71
2021/04/09 06:31:21;;;;;;;20.57;16.07;;;8.00;71.30;;;;;;5111491;28;20094;-70
2021/04/09 06:33:47;;;;;;;18.87;15.73;;;8.00;71.20;;;;;;5111277;28;20305;-70
2021/04/09 06:36:13;;;;;;;17.83;14.43;;;8.00;71.30;;;;;;5110391;28;20293;-70
2021/04/09 06:38:38;;;;;;;17.90;14.83;;;8.10;71.30;;;;;;5111406;28;20571;-70
2021/04/09 06:41:04;;;;;;;18.23;14.57;;;8.10;71.10;;;;;;5110586;28;20523;-70
2021/04/09 06:43:30;;;;;;;20.13;15.07;;;8.20;71.10;;;;;;5108328;28;20134;-68
2021/04/09 06:45:56;;;;;;;16.37;14.63;;;8.20;71.10;;;;;;5108714;28;20070;-69
2021/04/09 06:48:22;;;;;;;20.10;15.40;;;8.30;71.30;;;;;;5111423;28;20785;-68
2021/04/09 06:50:48;;;;;;;20.70;15.20;;;8.40;71.30;;;;;;5110715;28;20139;-69
2021/04/09 06:53:13;;;;;;;18.23;14.77;;;8.40;71.00;;;;;;5111681;28;20496;-69
2021/04/09 06:55:44;;;;;;;23.40;15.43;;;8.60;71.00;;;;;;5111598;28;20052;-69
2021/04/09 06:58:19;;;;;;;22.48;14.68;;;8.60;70.90;;;;;;5110545;28;20083;-68
2021/04/09 07:00:49;;;;;;;18.63;14.53;;;8.70;70.90;;;;;;5111078;28;20139;-69
2021/04/09 07:03:14;;;;;;;17.97;13.70;;;8.80;71.00;;;;;;5111193;28;20313;-69
2021/04/09 07:05:40;;;;;;;18.60;13.93;;;8.90;70.90;;;;;;5110638;28;20308;-69
2021/04/09 07:08:07;;;;;;;15.43;12.93;;;9.10;70.90;;;;;;5110455;28;20051;-69
2021/04/09 07:10:33;;;;;;;17.93;14.10;;;9.30;70.60;;;;;;5110862;28;20495;-69
2021/04/09 07:13:06;;;;;;;19.13;13.60;;;9.60;69.80;;;;;;5110431;28;20312;-72
2021/04/09 07:15:42;;;;;;;22.83;13.60;;;9.70;69.50;;;;;;5110581;28;20047;-70
2021/04/09 07:18:10;;;;;;;18.00;13.20;;;9.70;69.60;;;;;;5109654;28;20400;-70
2021/04/09 07:20:38;;;;;;;18.30;13.13;;;9.80;69.60;;;;;;5110952;28;20385;-71
2021/04/09 07:23:07;;;;;;;17.03;12.03;;;10.00;69.30;;;;;;5110933;28;20329;-69
2021/04/09 07:25:34;;;;;;;18.70;13.07;;;10.10;68.80;;;;;;5110160;28;20333;-69
2021/04/09 07:28:21;;;;;;;17.07;13.73;;;10.10;68.60;;;;;;5110603;28;20317;-68
2021/04/09 07:30:54;;;;;;;22.70;13.43;;;10.10;68.60;;;;;;5110276;28;20305;-70
2021/04/09 07:33:24;;;;;;;17.47;13.03;;;10.10;69.00;;;;;;5110181;28;20293;-70
2021/04/09 07:35:52;;;;;;;19.50;12.75;;;10.20;68.70;;;;;;5110416;28;20347;-70
2021/04/09 07:38:29;;;;;;;18.33;12.50;;;10.30;68.80;;;;;;5110058;28;20051;-70
2021/04/09 07:40:58;;;;;;;18.87;13.10;;;10.40;68.80;;;;;;5109200;28;20298;-70
2021/04/09 07:43:25;;;;;;;14.23;11.37;;;10.40;68.80;;;;;;5110797;28;20639;-71
2021/04/09 07:45:56;;;;;;;13.93;10.47;;;10.60;68.70;;;;;;5108679;28;20039;-69
2021/04/09 07:48:33;;;;;;;18.45;11.55;;;10.70;68.50;;;;;;5110004;28;20040;-70
2021/04/09 07:51:00;;;;;;;21.13;11.93;;;10.80;68.30;;;;;;5109150;28;20043;-70
2021/04/09 07:53:31;;;;;;;18.57;11.70;;;10.90;68.10;;;;;;5108932;28;20067;-70
2021/04/09 07:56:09;;;;;;;18.52;10.88;;;10.80;67.80;;;;;;5109407;28;20039;-69
2021/04/09 07:58:35;;;;;;;17.23;10.27;;;10.70;68.00;;;;;;5110083;28;20617;-67
2021/04/09 08:01:03;;;;;;;18.87;10.20;;;10.60;68.40;;;;;;5108629;28;20309;-69
2021/04/09 08:03:35;;;;;;;16.17;11.40;;;10.50;68.50;;;;;;5110496;28;20055;-68
2021/04/09 08:06:04;;;;;;;18.90;12.27;;;10.40;68.80;;;;;;5109760;28;20079;-71
2021/04/09 08:08:30;;;;;;;16.87;10.90;;;10.30;69.20;;;;;;5109063;28;20055;-70
2021/04/09 08:11:15;;;;;;;16.83;10.90;;;10.20;69.50;;;;;;5109153;28;20612;-68
2021/04/09 08:13:40;;;;;;;17.23;12.00;;;10.20;69.60;;;;;;5110071;28;20527;-71
2021/04/09 08:16:27;;;;;;;16.23;11.70;;;10.10;69.60;;;;;;5108651;28;20380;-70
2021/04/09 08:19:02;;;;;;;17.97;11.60;;;10.10;69.80;;;;;;5109503;28;20044;-69
2021/04/09 08:21:30;;;;;;;21.97;11.50;;;10.00;69.90;;;;;;5108833;28;20298;-72
2021/04/09 08:23:56;;;;;;;17.53;11.47;;;10.00;70.20;;;;;;5109325;28;20297;-71
2021/04/09 08:26:23;;;;;;;19.30;12.10;;;10.10;70.00;;;;;;5109896;28;20373;-68
2021/04/09 08:28:51;;;;;;;14.37;11.43;;;10.00;70.10;;;;;;5108399;28;20074;-68
2021/04/09 08:31:17;;;;;;;20.00;12.47;;;10.00;70.20;;;;;;5109166;28;20722;-70
2021/04/09 08:33:43;;;;;;;18.57;11.57;;;10.00;70.50;;;;;;5109622;28;20297;-68
2021/04/09 08:36:09;;;;;;;16.47;12.23;;;10.00;70.70;;;;;;5108504;28;20357;-69
2021/04/09 08:38:35;;;;;;;18.33;13.20;;;9.90;70.80;;;;;;5109246;28;21081;-69
2021/04/09 08:41:01;;;;;;;22.20;13.10;;;9.90;71.10;;;;;;5109130;28;20301;-70
2021/04/09 08:43:27;;;;;;;17.33;12.63;;;9.90;71.20;;;;;;5108513;28;20047;-69
2021/04/09 08:45:53;;;;;;;19.10;12.67;;;9.80;71.50;;;;;;5106781;28;20362;-68
2021/04/09 08:48:21;;;;;;;18.07;12.97;;;9.80;71.60;;;;;;5106167;28;20048;-68
2021/04/09 08:50:47;;;;;;;18.77;12.53;;;9.80;71.90;;;;;;5105697;28;20346;-69
2021/04/09 08:53:29;;;;;;;19.90;12.37;;;9.70;72.10;;;;;;5106945;28;20309;-68
2021/04/09 08:55:55;;;;;;;;;;;9.70;72.50;;;;;;5106627;28;20381;-68
2021/04/09 08:58:20;;;;;;;14.10;11.50;;;9.70;73.70;;;;;;5105884;28;19920;-68
2021/04/09 09:00:48;;;;;;;18.63;11.80;;;9.70;73.20;;;;;;5108078;28;20451;-69
2021/04/09 09:03:30;;;;;;;15.73;11.30;;;9.80;72.30;;;;;;5107642;28;20100;-68
2021/04/09 09:06:04;;;;;;;16.73;10.83;;;9.90;72.60;;;;;;5107222;28;20305;-69
2021/04/09 09:08:48;;;;;;;19.87;11.60;;;10.00;72.50;;;;;;5108103;28;20851;-69
2021/04/09 09:11:34;;;;;;;19.77;10.83;;;10.10;72.30;;;;;;5107527;28;20346;-69
2021/04/09 09:14:00;;;;;;;20.07;10.20;;;10.20;72.20;;;;;;5108036;28;20301;-68
2021/04/09 09:16:35;;;;;;;17.87;11.07;;;10.30;72.10;;;;;;5108275;28;20665;-69
2021/04/09 09:19:01;;;;;;;17.80;10.13;;;10.30;72.00;;;;;;5107241;28;20105;-68
2021/04/09 09:21:31;;;;;;;17.50;10.43;;;10.30;71.90;;;;;;5108665;28;20488;-68
2021/04/09 09:24:01;;;;;;;16.23;9.97;;;10.30;72.00;;;;;;5108321;28;20059;-69
2021/04/09 09:26:33;;;;;;;19.27;9.43;;;10.20;72.10;;;;;;5107549;28;20415;-69
2021/04/09 09:29:29;;;;;;;13.67;8.80;;;10.20;72.10;;;;;;5107521;28;20094;-69
2021/04/09 09:32:04;;;;;;;16.73;9.23;;;10.20;72.50;;;;;;5105459;28;20130;-69
2021/04/09 09:34:34;;;;;;;15.70;9.03;;;10.20;72.50;;;;;;5108112;28;20047;-68
2021/04/09 09:37:01;;;;;;;16.20;7.40;;;10.10;72.60;;;;;;5108194;28;20858;-68
2021/04/09 09:39:49;;;;;;;14.40;7.70;;;10.00;72.80;;;;;;5107217;28;20204;-69
2021/04/09 09:42:20;;;;;;;13.70;6.07;;;10.00;72.90;;;;;;5107661;28;20131;-68
2021/04/09 09:44:48;;;;;;;11.15;5.35;;;9.90;72.80;;;;;;5107549;28;20290;-68
2021/04/09 09:47:14;;;;;;;15.00;6.27;;;9.90;72.90;;;;;;5107328;28;20048;-68
2021/04/09 09:50:00;;;;;;;13.90;6.00;;;9.90;72.80;;;;;;5107838;28;20047;-68
2021/04/09 09:52:39;;;;;;;12.30;5.30;;;9.90;73.00;;;;;;5106900;28;20044;-68
2021/04/09 09:55:19;;;;;;;18.13;5.77;;;10.00;72.90;;;;;;5107272;28;20294;-68
2021/04/09 09:57:46;;;;;;;11.03;4.87;;;10.10;72.50;;;;;;5108665;28;20707;-68
2021/04/09 10:00:14;;;;;;;11.20;4.77;;;10.20;72.20;;;;;;5107844;28;20397;-69
2021/04/09 10:02:41;;;;;;;9.03;4.50;;;10.20;72.00;;;;;;5108698;28;20379;-71
2021/04/09 10:05:08;;;;;;;15.00;5.80;;;10.30;71.90;;;;;;5108033;28;20301;-68
2021/04/09 10:07:34;;;;;;;18.27;7.20;;;10.30;71.60;;;;;;5107847;28;20316;-69
2021/04/09 10:09:59;;;;;;;11.40;5.17;;;10.40;71.60;;;;;;5107475;28;20297;-69
2021/04/09 10:12:25;;;;;;;10.97;5.83;;;10.40;71.60;;;;;;5108293;28;20495;-69
2021/04/09 10:14:52;;;;;;;10.27;5.00;;;10.50;71.70;;;;;;5107172;28;20047;-69
2021/04/09 10:17:18;;;;;;;17.30;5.87;;;10.50;71.30;;;;;;5111532;28;20512;-69
2021/04/09 10:20:04;;;;;;;14.03;5.33;;;10.50;71.30;;;;;;5111581;28;20087;-69
2021/04/09 10:22:30;;;;;;;14.27;4.87;;;10.50;70.90;;;;;;5111028;28;20048;-68
2021/04/09 10:24:56;;;;;;;10.93;4.30;;;10.60;71.00;;;;;;5111347;28;20308;-68
2021/04/09 10:27:22;;;;;;;12.70;4.67;;;10.60;70.80;;;;;;5112047;28;20044;-68
2021/04/09 10:29:48;;;;;;;12.57;4.27;;;10.60;70.60;;;;;;5110813;28;20048;-71
2021/04/09 10:32:18;;;;;;;11.10;4.87;;;10.70;70.30;;;;;;5111587;28;20464;-69
2021/04/09 10:34:51;;;;;;;13.77;5.27;;;10.80;70.10;;;;;;5111015;28;20051;-70
2021/04/09 10:37:25;;;;;;;9.23;3.93;;;10.70;69.60;;;;;;5111850;28;20366;-71
2021/04/09 10:39:51;;;;;;;9.20;3.87;;;10.70;69.70;;;;;;5111710;28;20386;-70
2021/04/09 10:42:17;;;;;;;13.00;4.37;;;10.70;69.70;;;;;;5110626;28;20821;-68
2021/04/09 10:44:43;;;;;;;11.53;5.23;;;10.70;69.80;;;;;;5111606;28;20301;-68
2021/04/09 10:47:10;;;;;;;9.33;4.43;;;10.70;69.80;;;;;;5111210;28;20624;-68
2021/04/09 10:49:38;;;;;;;13.37;4.97;;;10.90;69.80;;;;;;5110651;28;20048;-68
2021/04/09 10:52:05;;;;;;;10.80;4.37;;;10.90;69.40;;;;;;5110869;28;20096;-68
2021/04/09 10:54:33;;;;;;;11.63;4.40;;;11.00;69.30;;;;;;5112129;28;20043;-68
2021/04/09 10:57:10;;;;;;;8.70;4.40;;;11.10;69.20;;;;;;5109827;28;20465;-68
2021/04/09 10:59:44;;;;;;;9.57;3.93;;;11.10;69.00;;;;;;5111148;28;20067;-68
2021/04/09 11:02:17;;;;;;;8.43;3.83;;;11.10;68.90;;;;;;5110979;28;20066;-68
2021/04/09 11:04:52;;;;;;;11.63;4.40;;;11.00;68.90;;;;;;5110534;28;20047;-69
2021/04/09 11:07:18;;;;;;;10.93;4.20;;;10.90;68.90;;;;;;5111127;28;20055;-68
2021/04/09 11:09:48;;;;;;;7.90;4.20;;;10.80;69.10;;;;;;5110065;28;20093;-68
2021/04/09 11:12:27;;;;;;;11.07;4.00;;;10.70;69.50;;;;;;5110903;28;20561;-68
2021/04/09 11:15:08;;;;;;;10.40;4.70;;;10.50;70.00;;;;;;5111112;28;20414;-68
2021/04/09 11:17:36;;;;;;;13.38;5.00;;;10.50;70.50;;;;;;5110480;28;20070;-68
2021/04/09 11:20:26;;;;;;;14.37;4.63;;;10.50;70.50;;;;;;5110294;28;20124;-68
2021/04/09 11:23:06;;;;;;;13.13;5.10;;;10.50;70.90;;;;;;5110561;28;20293;-68
2021/04/09 11:25:39;;;;;;;11.20;4.70;;;10.50;71.20;;;;;;5109985;28;20051;-68
2021/04/09 11:28:06;;;;;;;9.63;4.30;;;10.40;71.00;;;;;;5109538;28;20325;-68
2021/04/09 11:30:35;;;;;;;10.83;5.17;;;10.40;71.10;;;;;;5110516;28;20294;-68
2021/04/09 11:33:02;;;;;;;14.33;5.57;;;10.30;71.30;;;;;;5109176;28;20354;-68
2021/04/09 11:35:34;;;;;;;11.30;5.03;;;10.30;71.70;;;;;;5110545;28;20354;-68
2021/04/09 11:38:06;;;;;;;9.50;4.87;;;10.30;72.00;;;;;;5109697;28;20305;-68
2021/04/09 11:40:43;;;;;;;9.02;5.07;;;10.30;71.90;;;;;;5110013;28;20704;-67
2021/04/09 11:43:10;;;;;;;15.33;5.87;;;10.30;71.70;;;;;;5108020;28;20040;-69
2021/04/09 11:45:40;;;;;;;11.57;6.23;;;10.30;71.90;;;;;;5108501;28;20327;-68
2021/04/09 11:48:28;;;;;;;13.60;7.07;;;10.30;72.20;;;;;;5109619;28;20315;-68
2021/04/09 11:51:14;;;;;;;10.13;4.50;;;10.40;73.30;;;;;;5107005;28;20308;-68
2021/04/09 11:53:39;;;;;;;14.70;6.03;;;10.50;73.10;;;;;;5107416;28;20395;-68
2021/04/09 11:56:06;;;;;;;9.60;4.67;;;10.60;73.00;;;;;;5109035;27;20304;-67
2021/04/09 11:58:40;;;;;;;12.17;5.60;;;10.80;72.70;;;;;;5109900;28;20097;-68
2021/04/09 12:01:06;;;;;;;12.47;5.17;;;10.90;72.50;;;;;;5106448;28;20035;-69
2021/04/09 12:03:43;;;;;;;9.70;5.10;;;11.00;72.20;;;;;;5109671;28;20480;-69
2021/04/09 12:06:19;;;;;;;8.93;4.57;;;11.10;71.50;;;;;;5106501;28;20043;-68
2021/04/09 12:08:45;;;;;;;10.90;4.63;;;11.20;71.00;;;;;;5109089;28;20138;-67
2021/04/09 12:11:12;;;;;;;11.47;5.23;;;11.30;70.80;;;;;;5109836;28;20044;-67
2021/04/09 12:13:39;;;;;;;8.90;4.53;;;11.40;70.30;;;;;;5108683;28;20408;-68
2021/04/09 12:16:06;;;;;;;14.47;4.57;;;11.60;69.90;;;;;;5105580;28;20511;-67
2021/04/09 12:18:32;;;;;;;12.10;4.80;;;11.60;69.00;;;;;;5109510;28;20104;-68
2021/04/09 12:20:58;;;;;;;10.87;5.20;;;11.70;68.90;;;;;;5108039;28;20039;-69
2021/04/09 12:23:25;;;;;;;8.87;4.70;;;11.80;68.60;;;;;;5109155;28;20480;-69
2021/04/09 12:25:54;;;;;;;10.47;4.63;;;11.90;68.60;;;;;;5108611;28;20403;-69
2021/04/09 12:28:19;;;;;;;10.77;4.67;;;12.00;68.70;;;;;;5108695;28;20051;-68
2021/04/09 12:30:45;;;;;;;10.83;4.63;;;12.10;68.60;;;;;;5109234;28;20388;-68
2021/04/09 12:33:11;;;;;;;11.37;3.87;;;12.20;68.10;;;;;;5108393;28;20046;-69
2021/04/09 12:35:36;;;;;;;8.67;4.93;;;12.20;67.80;;;;;;5108077;28;20054;-68
2021/04/09 12:38:02;;;;;;;12.80;4.30;;;12.20;67.50;;;;;;5108818;28;20047;-68
2021/04/09 12:40:28;;;;;;;10.47;4.97;;;12.10;67.40;;;;;;5108659;28;20108;-68
2021/04/09 12:42:53;;;;;;;9.00;4.20;;;12.10;67.80;;;;;;5107793;28;20476;-67